Gospic, Croatia

4:27 PM CEST on May 03, 2015 (GMT +0200)
Zemunik | | Change Station
CLOSE
Current Station
Airport
Location: Zadar,
Elevation: 269 ft
Nearby Weather Stations

Elev 269 ft 44.10 °N, 15.36 °E | Updated 27 minutes ago

Scattered Clouds
Scattered Clouds
66 °F
Feels Like 66 °F
N
14
Wind Variable Wind from SSE

Today
High -- | Low -- °F
--% Chance of Precip.
Yesterday
High -- | Low -- °F
Precip. -- in
5:46 AM 8:04 PM
Full, 100% visible
Pressure 29.95 in
Visibility 6.2 miles
Clouds Scattered Clouds 6500 ft
Dew Point 55 °F
Humidity 68%
Rainfall 0.00 in
Snow Depth Not available.
UV 4 out of 12
Pollen Not available.
Air Quality Not available.
Flu Activity Not available.
METAR LDZD 031400Z 15012KT 9999 SCT065 19/13 Q1014 NOSIG

More Conditions Fewer Conditions

Pressure 29.95 in
Visibility 6.2 miles
Clouds Scattered Clouds 6500 ft
Dew Point 55 °F
Humidity 68%
Rainfall 0.00 in
Snow Depth Not available.
UV 4 out of 12
Pollen Not available.
Air Quality Not available.
Flu Activity Not available.
METAR LDZD 031400Z 15012KT 9999 SCT065 19/13 Q1014 NOSIG

More Conditions Fewer Conditions

10-Day Weather Forecast

Almanac

Astronomy

May. 03, 2015 Rise Set
Actual Time
Civil Twilight
Nautical Twilight
Astronomical Twilight
Moon
Length of Visible Light
Length of Day
Tomorrow will be .
, % of the Moon is Illuminated

Today's Extremes

Country Highs Country Lows

Community

WunderPhotos

Upload Photos

1,818,242 photos uploaded!

WunderBlogs® & News

Nearby

Air Quality

  Air Quality AQ Index Pollutant
Not available.

Snow Depth

Station Depth Elevation

Earthquake Activity

City Distance Mag. Time & Date
Minimum magnitude displayed is 2.5.

Coastal Water Temperatures

Place Temperature

Stations

Nearby Weather Stations

Station Location Temp. Windchill Dew Point Humidity Wind Precip. Elev Updated Type